createdAt,value
2018-01-07T00:00:12.050Z,77.2
2018-01-07T00:01:12.233Z,77.3
2018-01-07T00:02:11.974Z,77.39
2018-01-07T00:03:12.261Z,77.87
2018-01-07T00:04:12.273Z,77.87
2018-01-07T00:05:12.010Z,77.39
2018-01-07T00:06:12.300Z,78.06
2018-01-07T00:07:12.320Z,77.01
2018-01-07T00:08:12.329Z,77.39
2018-01-07T00:09:12.338Z,77.58
2018-01-07T00:10:12.352Z,77.68
2018-01-07T00:11:12.364Z,77.3
2018-01-07T00:12:12.104Z,77.87
2018-01-07T00:13:12.118Z,77.87
2018-01-07T00:14:12.406Z,77.11
2018-01-07T00:15:12.419Z,77.39
2018-01-07T00:16:12.433Z,77.68
2018-01-07T00:17:12.170Z,77.11
2018-01-07T00:18:12.183Z,77.58
2018-01-07T00:19:12.474Z,77.58
2018-01-07T00:20:12.485Z,77.77
2018-01-07T00:21:12.499Z,77.39
2018-01-07T00:22:12.511Z,77.11
2018-01-07T00:23:12.252Z,77.39
2018-01-07T00:24:12.537Z,77.77
2018-01-07T00:25:12.549Z,77.39
2018-01-07T00:26:12.287Z,77.39
2018-01-07T00:27:12.576Z,78.16
2018-01-07T00:28:12.589Z,77.77
2018-01-07T00:29:12.327Z,77.3
2018-01-07T00:30:12.340Z,77.87
2018-01-07T00:31:12.638Z,77.77
2018-01-07T00:32:12.646Z,77.87
2018-01-07T00:33:12.659Z,77.97
2018-01-07T00:34:12.667Z,77.87
2018-01-07T00:35:12.679Z,78.06
2018-01-07T00:36:12.692Z,78.06
2018-01-07T00:37:12.757Z,78.06
2018-01-07T00:38:12.724Z,77.97
2018-01-07T00:39:12.852Z,77.87
2018-01-07T00:40:12.809Z,77.87
2018-01-07T00:41:12.762Z,77.87
2018-01-07T00:42:12.497Z,77.87
2018-01-07T00:43:12.786Z,77.77
2018-01-07T00:44:12.800Z,77.77
2018-01-07T00:45:12.810Z,78.06
2018-01-07T00:46:13.191Z,77.87
2018-01-07T00:47:12.843Z,77.97
2018-01-07T00:48:13.033Z,77.77
2018-01-07T00:49:12.863Z,77.77
2018-01-07T00:50:12.876Z,77.97
2018-01-07T00:51:12.920Z,77.68
2018-01-07T00:52:12.903Z,77.77
2018-01-07T00:53:12.924Z,77.77
2018-01-07T00:54:12.929Z,77.68
2018-01-07T00:55:12.947Z,77.87
2018-01-07T00:56:12.958Z,77.77
2018-01-07T00:57:12.970Z,77.77
2018-01-07T00:58:12.982Z,77.97
2018-01-07T00:59:12.994Z,77.97
2018-01-07T01:00:13.007Z,77.97
2018-01-07T01:01:13.021Z,77.87
2018-01-07T01:02:13.036Z,77.87
2018-01-07T01:03:13.051Z,77.77
2018-01-07T01:04:12.786Z,77.68
2018-01-07T01:05:13.073Z,78.06
2018-01-07T01:06:13.084Z,78.06
2018-01-07T01:07:13.100Z,78.25
2018-01-07T01:08:13.112Z,77.49
2018-01-07T01:09:13.124Z,77.49
2018-01-07T01:10:13.146Z,77.97
2018-01-07T01:11:13.158Z,78.06
2018-01-07T01:12:13.164Z,77.77
2018-01-07T01:13:13.178Z,77.97
2018-01-07T01:14:13.192Z,77.77
2018-01-07T01:15:13.205Z,77.97
2018-01-07T01:16:12.939Z,78.06
2018-01-07T01:17:13.231Z,78.06
2018-01-07T01:18:12.964Z,78.34
2018-01-07T01:19:13.256Z,77.97
2018-01-07T01:20:13.268Z,78.25
2018-01-07T01:21:13.287Z,78.06
2018-01-07T01:22:13.293Z,78.16
2018-01-07T01:23:13.303Z,77.97
2018-01-07T01:24:13.321Z,78.16
2018-01-07T01:25:13.062Z,78.44
2018-01-07T01:26:13.347Z,78.16
2018-01-07T01:27:13.360Z,78.53
2018-01-07T01:28:13.377Z,78.44
2018-01-07T01:29:13.384Z,78.06
2018-01-07T01:30:13.396Z,78.06
2018-01-07T01:31:13.413Z,78.06
2018-01-07T01:32:13.424Z,78.25
2018-01-07T01:33:13.165Z,78.21
2018-01-07T01:34:13.450Z,78.06
2018-01-07T01:35:13.468Z,78.34
2018-01-07T01:36:13.199Z,77.97
2018-01-07T01:37:13.491Z,78.21
2018-01-07T01:38:13.224Z,78.06
2018-01-07T01:39:13.513Z,78.25
2018-01-07T01:40:13.255Z,78.25
2018-01-07T01:41:13.268Z,77.92
2018-01-07T01:42:13.279Z,78.44
2018-01-07T01:43:13.568Z,78.16
2018-01-07T01:44:13.579Z,78.11
2018-01-07T01:45:13.596Z,78.53
2018-01-07T01:46:13.604Z,78.16
2018-01-07T01:47:13.616Z,78.34
2018-01-07T01:48:13.632Z,78.4
2018-01-07T01:49:13.643Z,78.34
2018-01-07T01:50:13.668Z,78.44
2018-01-07T01:51:13.669Z,78.16
2018-01-07T01:52:13.410Z,78.3
2018-01-07T01:53:13.423Z,78.06
2018-01-07T01:54:13.710Z,78.16
2018-01-07T01:55:13.723Z,78.25
2018-01-07T01:56:13.738Z,78.21
2018-01-07T01:57:13.750Z,78.02
2018-01-07T01:58:13.760Z,77.92
2018-01-07T01:59:13.778Z,77.92
2018-01-07T02:00:13.787Z,78.3
2018-01-07T02:01:13.802Z,78.3
2018-01-07T02:02:13.814Z,78.21
2018-01-07T02:03:13.827Z,78.02
2018-01-07T02:04:13.846Z,78.4
2018-01-07T02:05:13.851Z,78.34
2018-01-07T02:06:13.868Z,77.92
2018-01-07T02:07:13.878Z,77.92
2018-01-07T02:08:13.613Z,77.92
2018-01-07T02:09:13.628Z,77.92
2018-01-07T02:10:13.921Z,78.02
2018-01-07T02:11:13.653Z,77.55
2018-01-07T02:12:13.947Z,77.83
2018-01-07T02:13:13.687Z,77.83
2018-01-07T02:14:13.965Z,78.3
2018-01-07T02:15:13.982Z,78.21
2018-01-07T02:16:13.993Z,78.3
2018-01-07T02:17:14.008Z,78.02
2018-01-07T02:18:14.022Z,78.21
2018-01-07T02:19:14.031Z,78.21
2018-01-07T02:20:14.050Z,78.02
2018-01-07T02:21:14.066Z,78.21
2018-01-07T02:22:13.795Z,78.21
2018-01-07T02:23:13.819Z,78.21
2018-01-07T02:24:14.099Z,78.21
2018-01-07T02:25:13.833Z,78.21
2018-01-07T02:26:14.126Z,78.3
2018-01-07T02:27:13.859Z,78.3
2018-01-07T02:28:14.152Z,78.21
2018-01-07T02:29:14.163Z,78.21
2018-01-07T02:30:13.899Z,78.21
2018-01-07T02:31:13.916Z,78.21
2018-01-07T02:32:14.204Z,78.21
2018-01-07T02:33:13.936Z,78.21
2018-01-07T02:34:14.224Z,78.21
2018-01-07T02:35:14.243Z,78.21
2018-01-07T02:36:14.248Z,78.21
2018-01-07T02:37:13.989Z,78.21
2018-01-07T02:38:14.001Z,78.3
2018-01-07T02:39:14.290Z,78.3
2018-01-07T02:40:14.311Z,78.21
2018-01-07T02:41:14.313Z,78.21
2018-01-07T02:42:14.053Z,78.11
2018-01-07T02:43:14.339Z,78.02
2018-01-07T02:44:14.078Z,78.3
2018-01-07T02:45:14.367Z,78.21
2018-01-07T02:46:14.378Z,78.11
2018-01-07T02:47:14.389Z,78.3
2018-01-07T02:48:14.129Z,77.73
2018-01-07T02:49:14.145Z,78.5
2018-01-07T02:50:14.437Z,78.21
2018-01-07T02:51:14.446Z,78.02
2018-01-07T02:52:14.456Z,78.11
2018-01-07T02:53:14.209Z,78.02
2018-01-07T02:54:14.481Z,78.21
2018-01-07T02:55:14.219Z,78.02
2018-01-07T02:56:14.511Z,78.02
2018-01-07T02:57:14.248Z,78.3
2018-01-07T02:58:14.535Z,78.02
2018-01-07T02:59:14.547Z,78.4
2018-01-07T03:00:14.565Z,78.3
2018-01-07T03:01:14.571Z,78.4
2018-01-07T03:02:14.585Z,78.11
2018-01-07T03:03:14.651Z,78.11
2018-01-07T03:04:14.618Z,78.21
2018-01-07T03:05:14.622Z,78.11
2018-01-07T03:06:14.364Z,78.11
2018-01-07T03:07:14.651Z,78.3
2018-01-07T03:08:14.710Z,77.92
2018-01-07T03:09:14.673Z,78.02
2018-01-07T03:10:14.685Z,78.3
2018-01-07T03:11:14.699Z,78.11
2018-01-07T03:12:14.438Z,78.21
2018-01-07T03:13:14.775Z,78.11
2018-01-07T03:14:14.735Z,78.02
2018-01-07T03:15:14.746Z,78.3
2018-01-07T03:16:14.761Z,78.21
2018-01-07T03:17:14.501Z,78.02
2018-01-07T03:18:14.789Z,78.11
2018-01-07T03:19:14.528Z,78.5
2018-01-07T03:20:14.814Z,78.11
2018-01-07T03:21:14.824Z,78.11
2018-01-07T03:22:14.840Z,78.11
2018-01-07T03:23:14.852Z,78.5
2018-01-07T03:24:14.868Z,78.02
2018-01-07T03:25:14.877Z,78.3
2018-01-07T03:26:14.896Z,78.21
2018-01-07T03:27:14.901Z,78.11
2018-01-07T03:28:14.912Z,78.02
2018-01-07T03:29:14.926Z,78.3
2018-01-07T03:30:14.681Z,78.59
2018-01-07T03:31:14.957Z,78.59
2018-01-07T03:32:15.009Z,78.3
2018-01-07T03:33:14.979Z,78.59
2018-01-07T03:34:14.715Z,78.4
2018-01-07T03:35:15.001Z,78.11
2018-01-07T03:36:15.017Z,78.59
2018-01-07T03:37:15.029Z,78.11
2018-01-07T03:38:15.040Z,78.3
2018-01-07T03:39:15.056Z,78.4
2018-01-07T03:40:15.071Z,78.3
2018-01-07T03:41:15.082Z,78.3
2018-01-07T03:42:14.816Z,78.3
2018-01-07T03:43:15.104Z,78.59
2018-01-07T03:44:14.842Z,78.21
2018-01-07T03:45:15.133Z,78.5
2018-01-07T03:46:15.144Z,78.59
2018-01-07T03:47:15.156Z,78.02
2018-01-07T03:48:15.168Z,78.11
2018-01-07T03:49:15.182Z,78.21
2018-01-07T03:50:15.197Z,78.4
2018-01-07T03:51:15.220Z,78.4
2018-01-07T03:52:15.219Z,78.4
2018-01-07T03:53:15.238Z,78.11
2018-01-07T03:54:14.968Z,78.11
2018-01-07T03:55:14.981Z,78.11
2018-01-07T03:56:15.270Z,78.02
2018-01-07T03:57:15.285Z,78.02
2018-01-07T03:58:15.019Z,78.02
2018-01-07T03:59:15.308Z,78.02
2018-01-07T04:00:15.320Z,77.92
2018-01-07T04:01:15.349Z,78.02
2018-01-07T04:02:15.376Z,78.21
2018-01-07T04:03:15.358Z,78.02
2018-01-07T04:04:15.370Z,78.02
2018-01-07T04:05:15.382Z,78.21
2018-01-07T04:06:15.122Z,78.11
2018-01-07T04:07:15.132Z,77.64
2018-01-07T04:08:15.147Z,78.02
2018-01-07T04:09:15.433Z,77.73
2018-01-07T04:10:15.447Z,77.83
2018-01-07T04:11:15.458Z,78.02
2018-01-07T04:12:15.195Z,78.02
2018-01-07T04:13:15.484Z,78.02
2018-01-07T04:14:15.498Z,78.3
2018-01-07T04:15:15.234Z,78.11
2018-01-07T04:16:15.247Z,78.21
2018-01-07T04:17:15.535Z,78.3
2018-01-07T04:18:15.546Z,78.02
2018-01-07T04:19:15.562Z,77.92
2018-01-07T04:20:15.571Z,77.83
2018-01-07T04:21:15.315Z,78.3
2018-01-07T04:22:15.320Z,78.02
2018-01-07T04:23:15.345Z,78.3
2018-01-07T04:24:15.621Z,78.21
2018-01-07T04:25:15.361Z,78.3
2018-01-07T04:26:15.644Z,77.64
2018-01-07T04:27:15.660Z,78.02
2018-01-07T04:28:15.397Z,78.02
2018-01-07T04:29:15.410Z,77.22
2018-01-07T04:30:15.695Z,77.79
2018-01-07T04:31:15.711Z,77.98
2018-01-07T04:32:15.720Z,77.98
2018-01-07T04:33:15.733Z,78.08
2018-01-07T04:34:15.746Z,77.89
2018-01-07T04:35:15.761Z,77.98
2018-01-07T04:36:15.771Z,77.79
2018-01-07T04:37:15.783Z,77.73
2018-01-07T04:38:15.522Z,77.83
2018-01-07T04:39:15.814Z,77.79
2018-01-07T04:40:15.829Z,77.92
2018-01-07T04:41:15.560Z,78.02
2018-01-07T04:42:15.845Z,77.89
2018-01-07T04:43:15.859Z,77.7
2018-01-07T04:44:15.871Z,77.7
2018-01-07T04:45:15.612Z,77.7
2018-01-07T04:46:15.899Z,77.6
2018-01-07T04:47:15.908Z,77.79
2018-01-07T04:48:15.646Z,77.79
2018-01-07T04:49:15.937Z,77.7
2018-01-07T04:50:16.126Z,77.79
2018-01-07T04:51:15.959Z,77.41
2018-01-07T04:52:15.979Z,77.7
2018-01-07T04:53:15.993Z,77.6
2018-01-07T04:54:16.152Z,77.6
2018-01-07T04:55:16.010Z,77.79
2018-01-07T04:56:15.746Z,77.41
2018-01-07T04:57:15.763Z,77.7
2018-01-07T04:58:16.048Z,77.6
2018-01-07T04:59:16.061Z,77.7
2018-01-07T05:00:16.078Z,77.89
2018-01-07T05:01:15.810Z,77.41
2018-01-07T05:02:16.281Z,77.98
2018-01-07T05:03:16.111Z,77.6
2018-01-07T05:04:15.846Z,77.6
2018-01-07T05:05:15.859Z,77.98
2018-01-07T05:06:16.147Z,77.79
2018-01-07T05:07:16.163Z,77.98
2018-01-07T05:08:15.969Z,77.98
2018-01-07T05:09:16.184Z,77.98
2018-01-07T05:10:16.197Z,77.79
2018-01-07T05:11:16.269Z,77.79
2018-01-07T05:12:16.447Z,77.79
2018-01-07T05:13:16.539Z,77.79
2018-01-07T05:14:16.248Z,77.7
2018-01-07T05:15:16.262Z,78.08
2018-01-07T05:16:15.996Z,77.89
2018-01-07T05:17:16.284Z,78.08
2018-01-07T05:18:16.297Z,77.7
2018-01-07T05:19:16.306Z,77.31
2018-01-07T05:20:16.321Z,77.22
2018-01-07T05:21:16.330Z,78.08
2018-01-07T05:22:16.069Z,77.79
2018-01-07T05:23:16.089Z,77.79
2018-01-07T05:24:16.095Z,77.89
2018-01-07T05:25:16.381Z,77.51
2018-01-07T05:26:16.394Z,77.79
2018-01-07T05:27:16.409Z,77.22
2018-01-07T05:28:16.418Z,77.41
2018-01-07T05:29:16.156Z,77.41
2018-01-07T05:30:16.169Z,77.98
2018-01-07T05:31:16.456Z,77.22
2018-01-07T05:32:16.193Z,77.31
2018-01-07T05:33:16.482Z,77.98
2018-01-07T05:34:16.217Z,77.7
2018-01-07T05:35:16.505Z,77.79
2018-01-07T05:36:16.534Z,77.98
2018-01-07T05:37:16.530Z,77.98
2018-01-07T05:38:16.543Z,77.79
2018-01-07T05:39:16.556Z,77.41
2018-01-07T05:40:16.568Z,78.08
2018-01-07T05:41:16.579Z,77.98
2018-01-07T05:42:16.316Z,77.98
2018-01-07T05:43:16.601Z,77.89
2018-01-07T05:44:16.613Z,77.98
2018-01-07T05:45:16.354Z,77.41
2018-01-07T05:46:16.640Z,77.31
2018-01-07T05:47:16.653Z,77.89
2018-01-07T05:48:16.389Z,77.89
2018-01-07T05:49:16.678Z,77.22
2018-01-07T05:50:16.417Z,77.79
2018-01-07T05:51:16.700Z,77.89
2018-01-07T05:52:16.716Z,77.89
2018-01-07T05:53:16.452Z,77.98
2018-01-07T05:54:16.462Z,77.89
2018-01-07T05:55:16.751Z,78.08
2018-01-07T05:56:16.763Z,77.79
2018-01-07T05:57:16.774Z,78.08
2018-01-07T05:58:16.788Z,78.08
2018-01-07T05:59:16.796Z,77.51
2018-01-07T06:00:16.812Z,77.79
2018-01-07T06:01:16.835Z,77.98
2018-01-07T06:02:16.835Z,77.98
2018-01-07T06:03:16.854Z,77.98
2018-01-07T06:04:17.132Z,77.7
2018-01-07T06:05:16.872Z,77.51
2018-01-07T06:06:16.885Z,77.79
2018-01-07T06:07:16.897Z,77.41
2018-01-07T06:08:16.909Z,77.22
2018-01-07T06:09:16.647Z,77.22
2018-01-07T06:10:16.932Z,77.6
2018-01-07T06:11:16.950Z,77.41
2018-01-07T06:12:16.960Z,77.41
2018-01-07T06:13:16.969Z,77.31
2018-01-07T06:14:16.705Z,77.51
2018-01-07T06:15:16.994Z,78.08
2018-01-07T06:16:17.006Z,77.7
2018-01-07T06:17:17.020Z,77.79
2018-01-07T06:18:17.040Z,77.98
2018-01-07T06:19:17.045Z,77.7
2018-01-07T06:20:17.054Z,77.89
2018-01-07T06:21:17.069Z,77.98
2018-01-07T06:22:17.083Z,77.98
2018-01-07T06:23:17.089Z,77.79
2018-01-07T06:24:17.152Z,77.98
2018-01-07T06:25:16.839Z,77.79
2018-01-07T06:26:17.126Z,77.79
2018-01-07T06:27:17.178Z,77.98
2018-01-07T06:28:17.151Z,77.79
2018-01-07T06:29:17.212Z,77.79
2018-01-07T06:30:17.176Z,77.98
2018-01-07T06:31:17.196Z,77.79
2018-01-07T06:32:16.925Z,77.79
2018-01-07T06:33:17.214Z,77.89
2018-01-07T06:34:16.949Z,77.79
2018-01-07T06:35:16.960Z,77.98
2018-01-07T06:36:17.251Z,77.89
2018-01-07T06:37:16.983Z,77.6
2018-01-07T06:38:17.273Z,77.79
2018-01-07T06:39:17.008Z,78.08
2018-01-07T06:40:17.297Z,77.6
2018-01-07T06:41:17.308Z,77.7
2018-01-07T06:42:17.318Z,77.7
2018-01-07T06:43:17.332Z,77.98
2018-01-07T06:44:17.447Z,77.98
2018-01-07T06:45:17.356Z,77.79
2018-01-07T06:46:17.370Z,77.79
2018-01-07T06:47:17.383Z,77.7
2018-01-07T06:48:17.392Z,77.6
2018-01-07T06:49:17.403Z,77.89
2018-01-07T06:50:17.421Z,77.7
2018-01-07T06:51:17.431Z,77.79
2018-01-07T06:52:17.166Z,77.75
2018-01-07T06:53:17.463Z,77.75
2018-01-07T06:54:17.517Z,77.79
2018-01-07T06:55:17.478Z,77.7
2018-01-07T06:56:17.488Z,77.79
2018-01-07T06:57:17.503Z,77.75
2018-01-07T06:58:17.511Z,77.7
2018-01-07T06:59:17.579Z,77.94
2018-01-07T07:00:17.262Z,77.98
2018-01-07T07:01:17.560Z,77.75
2018-01-07T07:02:17.285Z,77.98
2018-01-07T07:03:17.572Z,77.79
2018-01-07T07:04:17.636Z,77.66
2018-01-07T07:05:17.600Z,77.75
2018-01-07T07:06:17.333Z,77.66
2018-01-07T07:07:17.620Z,77.56
2018-01-07T07:08:17.630Z,77.94
2018-01-07T07:09:17.646Z,77.94
2018-01-07T07:10:17.655Z,77.66
2018-01-07T07:11:17.668Z,77.94
2018-01-07T07:12:17.680Z,77.41
2018-01-07T07:13:17.692Z,77.84
2018-01-07T07:14:17.430Z,77.79
2018-01-07T07:15:17.715Z,77.84
2018-01-07T07:16:17.454Z,78.23
2018-01-07T07:17:17.742Z,78.36
2018-01-07T07:18:17.752Z,77.84
2018-01-07T07:19:17.767Z,77.84
2018-01-07T07:20:17.501Z,77.89
2018-01-07T07:21:17.786Z,77.47
2018-01-07T07:22:17.802Z,77.6
2018-01-07T07:23:17.539Z,78.17
2018-01-07T07:24:17.550Z,78.13
2018-01-07T07:25:17.839Z,78.08
2018-01-07T07:26:17.571Z,78.03
2018-01-07T07:27:17.861Z,77.84
2018-01-07T07:28:17.875Z,77.89
2018-01-07T07:29:17.884Z,78.13
2018-01-07T07:30:17.618Z,78.27
2018-01-07T07:31:17.908Z,78.08
2018-01-07T07:32:17.644Z,78.08
2018-01-07T07:33:17.940Z,77.89
2018-01-07T07:34:17.668Z,77.89
2018-01-07T07:35:17.957Z,78.23
2018-01-07T07:36:17.691Z,78.17
2018-01-07T07:37:17.979Z,77.84
2018-01-07T07:38:17.989Z,77.94
2018-01-07T07:39:18.004Z,77.94
2018-01-07T07:40:18.015Z,77.94
2018-01-07T07:41:18.026Z,77.94
2018-01-07T07:42:18.039Z,77.94
2018-01-07T07:43:18.065Z,77.94
2018-01-07T07:44:17.787Z,77.94
2018-01-07T07:45:18.072Z,78.13
2018-01-07T07:46:18.091Z,78.03
2018-01-07T07:47:18.093Z,78.23
2018-01-07T07:48:17.833Z,77.94
2018-01-07T07:49:18.121Z,78.17
2018-01-07T07:50:18.136Z,78.03
2018-01-07T07:51:18.143Z,77.94
2018-01-07T07:52:18.160Z,78.23
2018-01-07T07:53:17.896Z,78.27
2018-01-07T07:54:18.184Z,78.03
2018-01-07T07:55:18.191Z,78.42
2018-01-07T07:56:17.933Z,78.42
2018-01-07T07:57:18.218Z,78.32
2018-01-07T07:58:18.228Z,78.23
2018-01-07T07:59:18.239Z,78.13
2018-01-07T08:00:18.249Z,78.23
2018-01-07T08:01:18.266Z,78.17
2018-01-07T08:02:18.033Z,78.23
2018-01-07T08:03:18.291Z,78.23
2018-01-07T08:04:18.299Z,78.42
2018-01-07T08:05:18.314Z,78.42
2018-01-07T08:06:18.378Z,78.51
2018-01-07T08:07:18.334Z,78.51
2018-01-07T08:08:18.347Z,78.51
2018-01-07T08:09:18.417Z,78.23
2018-01-07T08:10:18.372Z,78.03
2018-01-07T08:11:18.384Z,78.23
2018-01-07T08:12:18.397Z,78.03
2018-01-07T08:13:18.408Z,78.51
2018-01-07T08:14:18.418Z,78.23
2018-01-07T08:15:18.430Z,77.98
2018-01-07T08:16:18.442Z,78.61
2018-01-07T08:17:18.453Z,78.03
2018-01-07T08:18:18.474Z,78.23
2018-01-07T08:19:18.481Z,78.23
2018-01-07T08:20:18.213Z,78.03
2018-01-07T08:21:18.498Z,78.32
2018-01-07T08:22:18.517Z,78.32
2018-01-07T08:23:18.531Z,78.32
2018-01-07T08:24:18.535Z,78.51
2018-01-07T08:25:18.552Z,78.23
2018-01-07T08:26:18.582Z,78.42
2018-01-07T08:27:18.570Z,77.94
2018-01-07T08:28:18.305Z,77.94
2018-01-07T08:29:18.695Z,78.13
2018-01-07T08:30:18.662Z,78.23
2018-01-07T08:31:18.618Z,77.94
2018-01-07T08:32:18.632Z,78.13
2018-01-07T08:33:18.366Z,78.13
2018-01-07T08:34:18.705Z,78.03
2018-01-07T08:35:18.665Z,77.94
2018-01-07T08:36:18.677Z,78.03
2018-01-07T08:37:18.413Z,78.03
2018-01-07T08:38:18.711Z,78.13
2018-01-07T08:39:18.712Z,77.94
2018-01-07T08:40:18.449Z,78.13
2018-01-07T08:41:18.459Z,78.13
2018-01-07T08:42:18.754Z,78.13
2018-01-07T08:43:18.761Z,78.13
2018-01-07T08:44:18.774Z,78.23
2018-01-07T08:45:18.784Z,77.84
2018-01-07T08:46:18.798Z,78.13
2018-01-07T08:47:18.807Z,78.42
2018-01-07T08:48:18.818Z,78.03
2018-01-07T08:49:18.559Z,78.23
2018-01-07T08:50:18.566Z,78.13
2018-01-07T08:51:18.580Z,77.94
2018-01-07T08:52:18.593Z,77.84
2018-01-07T08:53:18.877Z,77.56
2018-01-07T08:54:18.615Z,77.56
2018-01-07T08:55:18.901Z,77.66
2018-01-07T08:56:18.641Z,78.13
2018-01-07T08:57:18.649Z,78.13
2018-01-07T08:58:18.938Z,78.23
2018-01-07T08:59:19.032Z,78.23
2018-01-07T09:00:18.960Z,77.84
2018-01-07T09:01:18.978Z,77.75
2018-01-07T09:02:18.985Z,78.13
2018-01-07T09:03:18.723Z,78.23
2018-01-07T09:04:19.111Z,77.66
2018-01-07T09:05:19.020Z,78.13
2018-01-07T09:06:19.032Z,78.13
2018-01-07T09:07:19.048Z,77.84
2018-01-07T09:08:19.061Z,78.13
2018-01-07T09:09:19.066Z,77.94
2018-01-07T09:10:19.080Z,77.56
2018-01-07T09:11:19.090Z,77.84
2018-01-07T09:12:18.828Z,77.94
2018-01-07T09:13:19.116Z,77.84
2018-01-07T09:14:18.850Z,77.75
2018-01-07T09:15:19.136Z,78.13
2018-01-07T09:16:19.151Z,78.03
2018-01-07T09:17:18.887Z,78.03
2018-01-07T09:18:19.172Z,77.66
2018-01-07T09:19:19.184Z,77.66
2018-01-07T09:20:19.200Z,78.13
2018-01-07T09:21:19.209Z,78.13
2018-01-07T09:22:19.227Z,78.13
2018-01-07T09:23:19.239Z,78.13
2018-01-07T09:24:18.969Z,77.84
2018-01-07T09:25:19.303Z,77.56
2018-01-07T09:26:19.269Z,77.56
2018-01-07T09:27:19.287Z,77.84
2018-01-07T09:28:19.299Z,77.75
2018-01-07T09:29:19.027Z,77.66
2018-01-07T09:30:19.315Z,77.66
2018-01-07T09:31:19.331Z,77.94
2018-01-07T09:32:19.341Z,78.03
2018-01-07T09:33:19.074Z,77.94
2018-01-07T09:34:19.084Z,77.94
2018-01-07T09:35:19.098Z,77.94
2018-01-07T09:36:19.109Z,77.94
2018-01-07T09:37:19.397Z,77.94
2018-01-07T09:38:19.139Z,77.94
2018-01-07T09:39:19.425Z,77.84
2018-01-07T09:40:19.434Z,77.94
2018-01-07T09:41:19.443Z,77.84
2018-01-07T09:42:19.457Z,77.56
2018-01-07T09:43:19.193Z,78.13
2018-01-07T09:44:19.481Z,78.13
2018-01-07T09:45:19.497Z,77.84
2018-01-07T09:46:19.229Z,77.56
2018-01-07T09:47:19.517Z,77.98
2018-01-07T09:48:19.252Z,77.75
2018-01-07T09:49:19.269Z,77.94
2018-01-07T09:50:19.589Z,77.94
2018-01-07T09:51:19.563Z,77.94
2018-01-07T09:52:19.577Z,77.66
2018-01-07T09:53:19.590Z,77.79
2018-01-07T09:54:19.325Z,77.66
2018-01-07T09:55:19.615Z,77.75
2018-01-07T09:56:19.347Z,77.7
2018-01-07T09:57:19.634Z,77.84
2018-01-07T09:58:19.371Z,77.7
2018-01-07T09:59:19.659Z,77.84
2018-01-07T10:00:19.670Z,77.79
2018-01-07T10:01:19.686Z,77.56
2018-01-07T10:02:19.693Z,77.7
2018-01-07T10:03:19.706Z,77.75
2018-01-07T10:04:19.720Z,77.94
2018-01-07T10:05:19.731Z,77.79
2018-01-07T10:06:19.745Z,77.56
2018-01-07T10:07:19.755Z,77.84
2018-01-07T10:08:19.770Z,77.51
2018-01-07T10:09:19.821Z,78.08
2018-01-07T10:10:19.802Z,77.79
2018-01-07T10:11:19.801Z,77.94
2018-01-07T10:12:19.814Z,77.66
2018-01-07T10:13:19.550Z,77.75
2018-01-07T10:14:19.836Z,77.98
2018-01-07T10:15:19.847Z,77.84
2018-01-07T10:16:19.861Z,77.66
2018-01-07T10:17:19.870Z,77.94
2018-01-07T10:18:19.608Z,77.66
2018-01-07T10:19:19.895Z,77.84
2018-01-07T10:20:19.909Z,77.84
2018-01-07T10:21:19.643Z,77.66
2018-01-07T10:22:19.933Z,77.94
2018-01-07T10:23:19.683Z,78.17
2018-01-07T10:24:19.958Z,78.03
2018-01-07T10:25:19.691Z,77.75
2018-01-07T10:26:20.452Z,77.37
2018-01-07T10:27:20.577Z,77.94
2018-01-07T10:28:20.475Z,77.98
2018-01-07T10:29:20.503Z,78.03
2018-01-07T10:30:20.030Z,78.17
2018-01-07T10:31:20.138Z,77.89
2018-01-07T10:32:19.777Z,77.84
2018-01-07T10:33:20.108Z,78.17
2018-01-07T10:34:20.222Z,77.37
2018-01-07T10:35:19.878Z,77.98
2018-01-07T10:36:20.102Z,77.75
2018-01-07T10:37:20.930Z,77.56
2018-01-07T10:38:20.124Z,77.94
2018-01-07T10:39:20.268Z,77.98
2018-01-07T10:40:20.759Z,77.98
2018-01-07T10:41:21.285Z,77.84
2018-01-07T10:42:26.749Z,77.79
2018-01-07T10:43:19.950Z,77.7
2018-01-07T10:44:35.307Z,77.7
2018-01-07T10:45:20.352Z,77.79
2018-01-07T10:46:24.223Z,77.79
2018-01-07T10:47:20.302Z,77.75
2018-01-07T10:48:20.231Z,78.03
2018-01-07T10:49:25.326Z,77.79
2018-01-07T10:50:23.579Z,77.66
2018-01-07T10:51:23.851Z,77.84
2018-01-07T10:52:21.906Z,77.98
2018-01-07T10:53:25.606Z,77.79
2018-01-07T10:54:35.587Z,77.7
2018-01-07T10:55:20.946Z,77.7
2018-01-07T10:56:25.356Z,77.79
2018-01-07T10:57:24.273Z,77.89
2018-01-07T10:58:38.669Z,77.98
2018-01-07T10:59:31.975Z,77.94
2018-01-07T11:00:21.521Z,77.98
2018-01-07T11:01:28.096Z,77.79
2018-01-07T11:02:34.847Z,77.98
2018-01-07T11:03:23.277Z,77.79
2018-01-07T11:04:22.390Z,77.79
2018-01-07T11:05:25.075Z,77.79
2018-01-07T11:06:23.704Z,77.51
2018-01-07T11:07:23.518Z,77.98
2018-01-07T11:08:24.614Z,77.79
2018-01-07T11:09:28.295Z,77.98
2018-01-07T11:10:25.888Z,77.79
2018-01-07T11:11:22.543Z,77.89
2018-01-07T11:12:23.561Z,78.08
2018-01-07T11:13:23.636Z,77.79
2018-01-07T11:14:23.623Z,77.98
2018-01-07T11:15:20.866Z,77.89
2018-01-07T11:16:27.515Z,77.98
2018-01-07T11:17:26.366Z,77.31
2018-01-07T11:18:23.496Z,77.7
2018-01-07T11:19:20.787Z,77.22
2018-01-07T11:20:22.520Z,77.89
2018-01-07T11:21:20.465Z,77.7
2018-01-07T11:22:23.955Z,77.89
2018-01-07T11:23:22.048Z,77.79
2018-01-07T11:24:25.472Z,77.7
2018-01-07T11:25:24.862Z,77.79
2018-01-07T11:26:24.136Z,77.31
2018-01-07T11:27:32.640Z,77.79
2018-01-07T11:28:30.620Z,77.79
2018-01-07T11:29:26.022Z,77.7
2018-01-07T11:30:24.536Z,77.41
2018-01-07T11:31:27.551Z,77.22
2018-01-07T11:32:27.592Z,77.31
2018-01-07T11:33:30.966Z,77.03
2018-01-07T11:34:26.985Z,77.31
2018-01-07T11:35:24.539Z,77.79
2018-01-07T11:36:22.591Z,77.03
2018-01-07T11:37:23.635Z,77.6
2018-01-07T11:38:22.736Z,77.03
2018-01-07T11:39:27.081Z,77.12
2018-01-07T11:40:24.067Z,77.12
2018-01-07T11:41:20.933Z,77.22
2018-01-07T11:42:20.897Z,77.31
2018-01-07T11:43:20.910Z,77.12
2018-01-07T11:44:20.921Z,77.12
2018-01-07T11:45:20.655Z,77.03
2018-01-07T11:46:20.959Z,77.03
2018-01-07T11:47:20.964Z,76.93
2018-01-07T11:48:20.968Z,76.65
2018-01-07T11:49:20.983Z,77.03
2018-01-07T11:50:20.992Z,77.22
2018-01-07T11:51:21.057Z,77.22
2018-01-07T11:52:21.018Z,77.03
2018-01-07T11:53:21.031Z,76.75
2018-01-07T11:54:21.050Z,76.84
2018-01-07T11:55:21.051Z,77.03
2018-01-07T11:56:21.065Z,77.03
2018-01-07T11:57:21.101Z,76.93
2018-01-07T11:58:21.094Z,77.22
2018-01-07T11:59:21.099Z,77.12
2018-01-07T12:00:21.113Z,77.22
2018-01-07T12:01:21.139Z,77.31
2018-01-07T12:02:21.138Z,76.75
2018-01-07T12:03:21.148Z,77.31
2018-01-07T12:04:20.889Z,76.56
2018-01-07T12:05:20.898Z,76.46
2018-01-07T12:06:21.188Z,76.93
2018-01-07T12:07:21.196Z,76.93
2018-01-07T12:08:21.210Z,76.65
2018-01-07T12:09:21.222Z,77.03
2018-01-07T12:10:20.959Z,77.31
2018-01-07T12:11:21.246Z,77.12
2018-01-07T12:12:21.258Z,76.93
2018-01-07T12:13:21.271Z,76.65
2018-01-07T12:14:21.279Z,76.61
2018-01-07T12:15:21.294Z,76.65
2018-01-07T12:16:21.310Z,76.93
2018-01-07T12:17:21.318Z,77.12
2018-01-07T12:18:21.359Z,77.22
2018-01-07T12:19:21.067Z,77.22
2018-01-07T12:20:21.365Z,77.03
2018-01-07T12:21:21.369Z,77.03
2018-01-07T12:22:21.101Z,77.6
2018-01-07T12:23:21.396Z,77.7
2018-01-07T12:24:21.399Z,77.03
2018-01-07T12:25:21.412Z,77.03
2018-01-07T12:26:21.149Z,76.56
2018-01-07T12:27:21.437Z,77.03
2018-01-07T12:28:21.173Z,76.37
2018-01-07T12:29:21.185Z,76.46
2018-01-07T12:30:21.198Z,77.12
2018-01-07T12:31:21.488Z,76.61
2018-01-07T12:32:21.494Z,76.65
2018-01-07T12:33:21.508Z,76.46
2018-01-07T12:34:21.521Z,76.37
2018-01-07T12:35:21.534Z,76.08
2018-01-07T12:36:21.543Z,76.18
2018-01-07T12:37:21.555Z,76.46
2018-01-07T12:38:21.568Z,76.46
2018-01-07T12:39:21.583Z,76.08
2018-01-07T12:40:21.592Z,76.37
2018-01-07T12:41:21.604Z,76.37
2018-01-07T12:42:21.617Z,76.75
2018-01-07T12:43:21.629Z,75.89
2018-01-07T12:44:21.365Z,76.08
2018-01-07T12:45:21.656Z,75.89
2018-01-07T12:46:21.670Z,75.79
2018-01-07T12:47:21.676Z,76.08
2018-01-07T12:48:21.782Z,75.89
2018-01-07T12:49:21.789Z,76.18
2018-01-07T12:50:21.772Z,76.46
2018-01-07T12:51:21.808Z,76.08
2018-01-07T12:52:21.818Z,75.99
2018-01-07T12:53:21.830Z,76.18
2018-01-07T12:54:21.837Z,75.6
2018-01-07T12:55:21.565Z,76.27